Time;durP1;ratioP1;P1;durP2;ratioP2;P2;SDS_P1;SDS_P2;PMS_P1;PMS_P2;Temp;Humidity;BMP_temperature;BMP_pressure;BME280_temperature;BME280_humidity;BME280_pressure;Samples;Min_cycle;Max_cycle;Signal;HPM_P1;HPM_P2
2021/01/24 00:01:31;;;;;;;33.53;18.80;;;2.80;99.90;;;;;;5076860;28;20099;-66
2021/01/24 00:03:56;;;;;;;35.00;19.50;;;2.80;99.90;;;;;;5077017;28;20031;-66
2021/01/24 00:06:22;;;;;;;33.65;18.73;;;2.90;99.90;;;;;;5076813;28;20032;-66
2021/01/24 00:08:48;;;;;;;38.45;20.75;;;2.80;99.90;;;;;;5076708;28;20020;-66
2021/01/24 00:11:13;;;;;;;42.45;22.20;;;2.80;99.90;;;;;;5076997;28;20374;-67
2021/01/24 00:13:39;;;;;;;39.03;21.10;;;2.80;99.90;;;;;;5076932;28;20067;-67
2021/01/24 00:16:05;;;;;;;39.92;22.00;;;2.80;99.90;;;;;;5075878;28;20029;-67
2021/01/24 00:18:30;;;;;;;41.60;21.02;;;2.70;99.90;;;;;;5076874;28;20029;-67
2021/01/24 00:20:56;;;;;;;36.13;20.50;;;2.80;99.90;;;;;;5075621;28;20036;-67
2021/01/24 00:23:21;;;;;;;38.50;20.33;;;2.80;99.90;;;;;;5076144;28;20025;-67
2021/01/24 00:25:47;;;;;;;39.17;21.00;;;2.90;99.90;;;;;;5076443;28;20021;-66
2021/01/24 00:28:19;;;;;;;36.30;20.30;;;2.80;99.90;;;;;;5076677;28;20025;-66
2021/01/24 00:30:44;;;;;;;41.05;21.67;;;2.80;99.90;;;;;;5076629;28;20378;-67
2021/01/24 00:33:10;;;;;;;35.55;20.33;;;2.80;99.90;;;;;;5076530;28;20024;-66
2021/01/24 00:35:35;;;;;;;38.50;20.08;;;2.80;99.90;;;;;;5076243;28;20033;-66
2021/01/24 00:38:02;;;;;;;42.22;20.27;;;2.80;99.90;;;;;;5076470;28;20033;-67
2021/01/24 00:40:27;;;;;;;40.38;20.90;;;2.80;99.90;;;;;;5075869;28;20028;-67
2021/01/24 00:42:53;;;;;;;39.67;20.33;;;2.80;99.90;;;;;;5076042;28;20115;-66
2021/01/24 00:45:18;;;;;;;40.85;20.83;;;2.80;99.90;;;;;;5076089;28;20461;-66
2021/01/24 00:47:44;;;;;;;40.70;19.48;;;2.80;99.90;;;;;;5076322;28;20025;-66
2021/01/24 00:50:10;;;;;;;39.58;20.45;;;2.80;99.90;;;;;;5076293;28;20095;-66
2021/01/24 00:52:35;;;;;;;36.70;19.58;;;2.80;99.90;;;;;;5076257;28;20458;-66
2021/01/24 00:55:01;;;;;;;39.35;20.58;;;2.80;99.90;;;;;;5075907;28;20028;-66
2021/01/24 00:57:26;;;;;;;36.45;19.52;;;2.80;99.90;;;;;;5074409;28;20029;-66
2021/01/24 00:59:52;;;;;;;37.33;19.83;;;2.90;99.90;;;;;;5076150;28;20043;-66
2021/01/24 01:02:18;;;;;;;36.03;19.38;;;2.90;99.90;;;;;;5075560;28;20037;-67
2021/01/24 01:04:43;;;;;;;38.70;19.95;;;2.90;99.90;;;;;;5075722;28;20024;-66
2021/01/24 01:07:10;;;;;;;36.65;18.33;;;3.00;99.90;;;;;;5075716;28;20020;-67
2021/01/24 01:09:36;;;;;;;36.35;18.65;;;2.90;99.90;;;;;;5075921;28;20031;-66
2021/01/24 01:12:02;;;;;;;35.85;19.00;;;2.90;99.90;;;;;;5075624;28;20024;-66
2021/01/24 01:14:28;;;;;;;35.97;18.65;;;2.90;99.90;;;;;;5075254;28;20461;-66
2021/01/24 01:16:53;;;;;;;33.30;18.70;;;2.90;99.90;;;;;;5075776;28;20021;-67
2021/01/24 01:19:19;;;;;;;37.35;18.83;;;2.90;99.90;;;;;;5075718;28;20027;-66
2021/01/24 01:21:44;;;;;;;31.23;18.00;;;3.00;99.90;;;;;;5075676;28;20025;-66
2021/01/24 01:24:10;;;;;;;32.90;18.15;;;3.00;99.90;;;;;;5075306;28;20032;-66
2021/01/24 01:26:35;;;;;;;33.85;18.20;;;3.00;99.90;;;;;;5075324;28;20024;-66
2021/01/24 01:29:01;;;;;;;30.52;17.17;;;3.00;99.90;;;;;;5075532;28;20454;-67
2021/01/24 01:31:27;;;;;;;34.65;17.85;;;3.00;99.90;;;;;;5075198;28;20036;-67
2021/01/24 01:33:52;;;;;;;34.28;18.15;;;3.00;99.90;;;;;;5074880;28;20025;-66
2021/01/24 01:36:18;;;;;;;32.10;18.08;;;3.00;99.90;;;;;;5075099;28;20020;-67
2021/01/24 01:38:43;;;;;;;30.55;17.33;;;3.00;99.90;;;;;;5075359;28;20047;-66
2021/01/24 01:41:09;;;;;;;30.27;17.30;;;3.00;99.90;;;;;;5073470;28;20529;-67
2021/01/24 01:43:35;;;;;;;34.63;17.65;;;3.00;99.90;;;;;;5075189;28;20025;-67
2021/01/24 01:46:01;;;;;;;34.10;17.25;;;3.00;99.90;;;;;;5075156;28;20095;-67
2021/01/24 01:48:27;;;;;;;30.85;16.52;;;3.00;99.90;;;;;;5075105;28;20086;-67
2021/01/24 01:50:55;;;;;;;31.30;17.13;;;3.00;99.90;;;;;;5075102;28;20028;-67
2021/01/24 01:53:21;;;;;;;30.67;15.88;;;3.00;99.90;;;;;;5075022;28;20024;-67
2021/01/24 01:55:47;;;;;;;30.20;16.48;;;3.00;99.90;;;;;;5074989;28;20081;-67
2021/01/24 01:58:12;;;;;;;35.85;17.05;;;3.00;99.90;;;;;;5074944;28;20036;-66
2021/01/24 02:00:38;;;;;;;33.40;17.40;;;3.00;99.90;;;;;;5074876;28;20028;-66
2021/01/24 02:03:37;;;;;;;33.70;17.42;;;3.00;99.90;;;;;;5074183;28;20052;-66
2021/01/24 02:06:14;;;;;;;29.17;16.63;;;3.00;99.90;;;;;;5074807;28;20572;-66
2021/01/24 02:08:49;;;;;;;29.83;16.27;;;3.10;99.90;;;;;;5074052;28;20103;-66
2021/01/24 02:11:23;;;;;;;31.77;16.58;;;3.00;99.90;;;;;;5074706;28;20181;-66
2021/01/24 02:14:28;;;;;;;31.65;17.02;;;3.00;99.90;;;;;;5074626;28;20024;-66
2021/01/24 02:16:55;;;;;;;31.15;15.38;;;3.00;99.90;;;;;;5074627;28;20048;-66
2021/01/24 02:19:26;;;;;;;29.48;16.17;;;3.00;99.90;;;;;;5073042;28;20025;-66
2021/01/24 02:21:53;;;;;;;31.45;16.58;;;3.00;99.90;;;;;;5074485;28;20343;-66
2021/01/24 02:24:22;;;;;;;31.08;16.10;;;2.90;99.90;;;;;;5074464;28;20017;-67
2021/01/24 02:27:03;;;;;;;31.85;16.67;;;2.90;99.90;;;;;;5074450;28;20109;-66
2021/01/24 02:29:59;;;;;;;31.35;16.92;;;2.90;99.90;;;;;;5074420;28;20380;-66
2021/01/24 02:32:26;;;;;;;28.73;16.15;;;2.80;99.90;;;;;;5073693;28;20036;-66
2021/01/24 02:34:54;;;;;;;32.55;16.08;;;2.70;99.90;;;;;;5074046;28;20191;-66
2021/01/24 02:37:20;;;;;;;30.38;16.65;;;2.70;99.90;;;;;;5074304;28;20103;-66
2021/01/24 02:39:46;;;;;;;30.23;15.95;;;2.70;99.90;;;;;;5074276;28;20052;-66
2021/01/24 02:42:14;;;;;;;28.70;14.82;;;2.70;99.90;;;;;;5073925;28;20027;-66
2021/01/24 02:44:40;;;;;;;28.38;15.13;;;2.60;99.90;;;;;;5073932;28;20025;-66
2021/01/24 02:47:06;;;;;;;27.00;14.35;;;2.60;99.90;;;;;;5073983;28;20141;-66
2021/01/24 02:49:35;;;;;;;26.77;13.80;;;2.60;99.90;;;;;;5074151;28;20469;-66
2021/01/24 02:52:01;;;;;;;24.73;14.30;;;2.50;99.90;;;;;;5074148;28;20021;-66
2021/01/24 02:54:28;;;;;;;29.23;16.25;;;2.50;99.90;;;;;;5074101;28;20155;-66
2021/01/24 02:56:54;;;;;;;29.77;15.93;;;2.40;99.90;;;;;;5073787;28;20039;-66
2021/01/24 02:59:21;;;;;;;30.52;15.82;;;2.40;99.90;;;;;;5074027;28;20044;-66
2021/01/24 03:01:46;;;;;;;30.40;15.90;;;2.40;99.90;;;;;;5073685;28;20062;-66
2021/01/24 03:04:12;;;;;;;31.58;16.35;;;2.30;99.90;;;;;;5073950;28;20469;-66
2021/01/24 03:06:37;;;;;;;31.33;16.45;;;2.30;99.90;;;;;;5073941;28;20123;-66
2021/01/24 03:09:04;;;;;;;32.72;16.40;;;2.30;99.90;;;;;;5073974;28;20048;-66
2021/01/24 03:11:31;;;;;;;34.13;16.88;;;2.30;99.90;;;;;;5073648;28;20024;-66
2021/01/24 03:14:08;;;;;;;35.58;18.60;;;2.30;99.90;;;;;;5073628;28;20504;-66
2021/01/24 03:16:37;;;;;;;34.05;17.77;;;2.20;99.90;;;;;;5073638;28;20078;-66
2021/01/24 03:19:04;;;;;;;40.00;18.80;;;2.20;99.90;;;;;;5075613;28;20374;-66
2021/01/24 03:21:33;;;;;;;28.90;16.05;;;2.20;99.90;;;;;;5077386;28;20052;-66
2021/01/24 03:24:00;;;;;;;30.58;16.90;;;2.20;99.90;;;;;;5077197;28;20359;-66
2021/01/24 03:26:26;;;;;;;30.88;16.50;;;2.20;99.90;;;;;;5077851;28;20446;-66
2021/01/24 03:28:52;;;;;;;28.88;16.65;;;2.30;99.90;;;;;;5076723;28;20044;-66
2021/01/24 03:31:17;;;;;;;29.92;15.80;;;2.30;99.90;;;;;;5077780;28;20377;-66
2021/01/24 03:33:43;;;;;;;27.63;15.75;;;2.20;99.90;;;;;;5077458;28;20535;-66
2021/01/24 03:36:09;;;;;;;28.85;15.27;;;2.20;99.90;;;;;;5059272;28;20025;-66
2021/01/24 03:38:34;;;;;;;35.20;17.00;;;2.20;99.90;;;;;;5077615;28;20032;-66
2021/01/24 03:41:00;;;;;;;30.45;15.95;;;2.30;99.90;;;;;;5077021;28;20028;-66
2021/01/24 03:43:26;;;;;;;27.85;15.93;;;2.30;99.90;;;;;;5077486;28;20032;-66
2021/01/24 03:45:51;;;;;;;28.50;15.90;;;2.20;99.90;;;;;;5075792;28;20016;-66
2021/01/24 03:48:17;;;;;;;32.47;15.90;;;2.20;99.90;;;;;;5077400;28;20367;-66
2021/01/24 03:50:43;;;;;;;32.42;17.10;;;2.20;99.90;;;;;;5077394;28;20025;-66
2021/01/24 03:53:08;;;;;;;30.77;15.43;;;2.30;99.90;;;;;;5077318;28;20055;-66
2021/01/24 03:55:34;;;;;;;29.23;16.52;;;2.30;99.90;;;;;;5077269;28;20025;-66
2021/01/24 03:57:59;;;;;;;28.25;15.88;;;2.40;99.90;;;;;;5077243;28;20025;-66
2021/01/24 04:00:25;;;;;;;27.17;15.60;;;2.30;99.90;;;;;;5076679;28;20460;-66
2021/01/24 04:02:51;;;;;;;31.45;15.70;;;2.40;99.90;;;;;;5076502;28;20052;-66
2021/01/24 04:05:16;;;;;;;26.15;15.35;;;2.40;99.90;;;;;;5076869;28;20025;-66
2021/01/24 04:07:42;;;;;;;26.60;14.20;;;2.40;99.90;;;;;;5076791;28;20386;-66
2021/01/24 04:10:08;;;;;;;27.65;15.98;;;2.50;99.90;;;;;;5075317;28;20024;-66
2021/01/24 04:12:34;;;;;;;24.60;14.25;;;2.40;99.90;;;;;;5077027;28;20052;-66
2021/01/24 04:15:00;;;;;;;26.85;15.25;;;2.40;99.90;;;;;;5076937;28;20067;-66
2021/01/24 04:17:26;;;;;;;29.00;15.00;;;2.50;99.90;;;;;;5076929;28;20046;-66
2021/01/24 04:19:51;;;;;;;27.45;14.88;;;2.50;99.90;;;;;;5076611;28;20033;-66
2021/01/24 04:22:17;;;;;;;27.77;14.93;;;2.50;99.90;;;;;;5076460;28;20496;-66
2021/01/24 04:24:42;;;;;;;30.08;15.07;;;2.50;99.90;;;;;;5076792;28;20024;-66
2021/01/24 04:27:08;;;;;;;28.38;15.93;;;2.50;99.90;;;;;;5075269;28;20458;-66
2021/01/24 04:29:34;;;;;;;38.17;17.67;;;2.40;99.90;;;;;;5076673;28;20033;-66
2021/01/24 04:31:59;;;;;;;30.77;17.05;;;2.40;99.90;;;;;;5075743;28;20381;-66
2021/01/24 04:34:25;;;;;;;30.30;17.27;;;2.50;99.90;;;;;;5076633;28;20021;-66
2021/01/24 04:36:50;;;;;;;30.45;16.77;;;2.50;99.90;;;;;;5075019;28;20021;-66
2021/01/24 04:39:16;;;;;;;29.60;17.58;;;2.50;99.90;;;;;;5076560;28;20458;-66
2021/01/24 04:41:42;;;;;;;31.52;17.13;;;2.50;99.90;;;;;;5076486;28;20469;-66
2021/01/24 04:44:08;;;;;;;33.83;17.73;;;2.50;99.90;;;;;;5076120;28;20031;-66
2021/01/24 04:46:35;;;;;;;33.47;17.77;;;2.60;99.90;;;;;;5076408;28;20024;-66
2021/01/24 04:49:01;;;;;;;32.08;18.05;;;2.60;99.90;;;;;;5076343;28;20114;-66
2021/01/24 04:51:27;;;;;;;35.30;18.40;;;2.60;99.90;;;;;;5076048;28;20358;-66
2021/01/24 04:53:53;;;;;;;31.73;17.75;;;2.60;99.90;;;;;;5076304;28;20142;-66
2021/01/24 04:56:19;;;;;;;32.60;17.67;;;2.60;99.90;;;;;;5075971;28;20059;-66
2021/01/24 04:58:44;;;;;;;31.92;18.65;;;2.60;99.90;;;;;;5075909;28;20067;-66
2021/01/24 05:01:13;;;;;;;34.90;18.77;;;2.60;99.90;;;;;;5075376;28;20031;-66
2021/01/24 05:03:39;;;;;;;35.97;18.52;;;2.60;99.90;;;;;;5076025;28;20500;-66
2021/01/24 05:06:05;;;;;;;36.63;19.10;;;2.60;99.90;;;;;;5076028;28;20025;-66
2021/01/24 05:08:31;;;;;;;35.47;19.70;;;2.70;99.90;;;;;;5075981;28;20028;-66
2021/01/24 05:11:03;;;;;;;36.35;18.95;;;2.70;99.90;;;;;;5075650;28;20108;-66
2021/01/24 05:13:29;;;;;;;37.17;19.20;;;2.70;99.90;;;;;;5075353;28;20052;-66
2021/01/24 05:15:56;;;;;;;33.97;18.92;;;2.60;99.90;;;;;;5075829;28;20531;-66
2021/01/24 05:18:22;;;;;;;36.22;19.10;;;2.60;99.90;;;;;;5075537;28;20060;-66
2021/01/24 05:20:50;;;;;;;34.90;19.42;;;2.60;99.90;;;;;;5075723;28;20050;-66
2021/01/24 05:23:19;;;;;;;40.63;20.42;;;2.70;99.90;;;;;;5075608;28;20454;-66
2021/01/24 05:25:45;;;;;;;38.80;20.85;;;2.70;99.90;;;;;;5075389;28;20028;-66
2021/01/24 05:28:17;;;;;;;38.58;20.77;;;2.70;99.90;;;;;;5075605;28;20474;-66
2021/01/24 05:30:43;;;;;;;38.80;21.52;;;2.70;99.90;;;;;;5075290;28;20420;-66
2021/01/24 05:33:08;;;;;;;42.97;21.55;;;2.60;99.90;;;;;;5075456;28;20036;-66
2021/01/24 05:35:46;;;;;;;45.20;22.02;;;2.60;99.90;;;;;;5075447;28;20082;-66
2021/01/24 05:38:31;;;;;;;40.70;21.30;;;2.60;99.90;;;;;;5075403;28;20025;-65
2021/01/24 05:41:04;;;;;;;41.28;21.38;;;2.50;99.90;;;;;;5074652;28;20086;-65
2021/01/24 05:43:35;;;;;;;41.83;21.20;;;2.50;99.90;;;;;;5073867;28;20017;-66
2021/01/24 05:46:02;;;;;;;35.92;20.27;;;2.50;99.90;;;;;;5074916;28;20021;-65
2021/01/24 05:48:28;;;;;;;35.50;19.65;;;2.50;99.90;;;;;;5075165;28;20017;-66
2021/01/24 05:50:54;;;;;;;37.45;19.70;;;2.40;99.90;;;;;;5075112;28;20017;-66
2021/01/24 05:53:22;;;;;;;41.03;21.48;;;2.40;99.90;;;;;;5074788;28;20031;-66
2021/01/24 05:55:47;;;;;;;41.83;21.30;;;2.40;99.90;;;;;;5075018;28;20374;-66
2021/01/24 05:58:28;;;;;;;38.42;20.15;;;2.40;99.90;;;;;;5074981;28;20034;-66
2021/01/24 06:00:53;;;;;;;41.47;21.00;;;2.40;99.90;;;;;;5074916;28;20034;-66
2021/01/24 06:03:20;;;;;;;38.55;19.75;;;2.30;99.90;;;;;;5074143;28;20041;-66
2021/01/24 06:05:46;;;;;;;39.05;19.45;;;2.30;99.90;;;;;;5074853;28;20102;-66
2021/01/24 06:08:15;;;;;;;37.95;19.75;;;2.20;99.90;;;;;;5074497;28;20020;-66
2021/01/24 06:10:41;;;;;;;38.42;20.73;;;2.20;99.90;;;;;;5074705;28;20017;-66
2021/01/24 06:13:14;;;;;;;35.90;20.00;;;2.20;99.90;;;;;;5074404;28;20024;-66
2021/01/24 06:15:42;;;;;;;38.63;19.88;;;2.10;99.90;;;;;;5074978;28;20028;-66
2021/01/24 06:18:14;;;;;;;41.58;20.75;;;2.00;99.90;;;;;;5073120;28;20367;-66
2021/01/24 06:20:46;;;;;;;37.63;20.65;;;1.90;99.90;;;;;;5074290;28;20074;-66
2021/01/24 06:23:43;;;;;;;40.80;20.95;;;1.80;99.90;;;;;;5074201;28;20490;-66
2021/01/24 06:26:12;;;;;;;38.42;19.90;;;1.70;99.90;;;;;;5073808;28;20029;-66
2021/01/24 06:28:41;;;;;;;41.55;21.10;;;1.70;99.90;;;;;;5074171;28;20025;-66
2021/01/24 06:31:15;;;;;;;44.35;21.17;;;1.70;99.90;;;;;;5074435;28;20115;-66
2021/01/24 06:33:44;;;;;;;38.92;20.52;;;1.70;99.90;;;;;;5072514;28;20500;-66
2021/01/24 06:36:10;;;;;;;43.10;20.67;;;1.60;99.90;;;;;;5074342;28;20028;-66
2021/01/24 06:38:39;;;;;;;43.15;22.88;;;1.60;99.90;;;;;;5073763;28;20362;-66
2021/01/24 06:41:07;;;;;;;50.40;24.83;;;1.60;99.90;;;;;;5074290;28;20075;-66
2021/01/24 06:43:37;;;;;;;43.08;23.10;;;1.50;99.90;;;;;;5074180;28;20020;-66
2021/01/24 06:46:05;;;;;;;52.00;25.42;;;1.60;99.90;;;;;;5074250;28;20055;-66
2021/01/24 06:48:51;;;;;;;51.95;27.10;;;1.50;99.90;;;;;;5073923;28;20025;-66
2021/01/24 06:51:37;;;;;;;47.53;24.98;;;1.50;99.90;;;;;;5073549;28;20432;-66
2021/01/24 06:54:05;;;;;;;49.83;26.42;;;1.60;99.90;;;;;;5073233;28;20109;-66
2021/01/24 06:56:40;;;;;;;52.28;26.55;;;1.50;99.90;;;;;;5073541;28;20052;-66
2021/01/24 06:59:06;;;;;;;56.20;28.73;;;1.50;99.90;;;;;;5072886;28;20035;-66
2021/01/24 07:01:35;;;;;;;54.45;29.35;;;1.60;99.90;;;;;;5073734;28;20056;-66
2021/01/24 07:10:00;;;;;;;54.08;28.17;;;1.60;99.90;;;;;;5112232;27;20339;-65
2021/01/24 07:12:43;;;;;;;53.88;28.65;;;1.60;99.90;;;;;;5111928;28;20080;-65
2021/01/24 07:15:18;;;;;;;55.25;30.10;;;1.60;99.90;;;;;;5111638;28;20475;-65
2021/01/24 07:17:53;;;;;;;56.15;28.92;;;1.50;99.90;;;;;;5111798;28;20036;-65
2021/01/24 07:20:21;;;;;;;55.67;30.83;;;1.50;99.90;;;;;;5111230;28;20078;-65
2021/01/24 07:22:48;;;;;;;55.00;29.35;;;1.40;99.90;;;;;;5111814;28;20123;-65
2021/01/24 07:25:13;;;;;;;55.13;28.70;;;1.40;99.90;;;;;;5111666;28;20350;-65
2021/01/24 07:27:39;;;;;;;54.83;29.70;;;1.40;99.90;;;;;;5111608;28;20027;-65
2021/01/24 07:30:06;;;;;;;59.03;31.40;;;1.40;99.90;;;;;;5111032;28;20465;-65
2021/01/24 07:32:31;;;;;;;55.33;30.73;;;1.30;99.90;;;;;;5111006;28;20207;-65
2021/01/24 07:34:57;;;;;;;63.78;31.90;;;1.30;99.90;;;;;;5110309;28;20457;-65
2021/01/24 07:37:24;;;;;;;60.65;32.10;;;1.30;99.90;;;;;;5111163;28;20020;-65
2021/01/24 07:39:52;;;;;;;64.88;34.28;;;1.30;99.90;;;;;;5111110;28;20085;-65
2021/01/24 07:42:18;;;;;;;74.28;36.95;;;1.30;99.90;;;;;;5111077;28;20024;-65
2021/01/24 07:44:45;;;;;;;68.93;35.38;;;1.30;99.90;;;;;;5111304;28;20020;-65
2021/01/24 07:47:12;;;;;;;70.20;36.50;;;1.30;99.90;;;;;;5109749;28;20384;-65
2021/01/24 07:49:39;;;;;;;73.38;36.85;;;1.30;99.90;;;;;;5110891;28;20108;-65
2021/01/24 07:52:07;;;;;;;69.45;35.53;;;1.30;99.90;;;;;;5111192;28;20020;-65
2021/01/24 07:54:34;;;;;;;73.15;36.40;;;1.30;99.90;;;;;;5111141;28;20019;-65
2021/01/24 07:57:00;;;;;;;73.32;35.65;;;1.30;99.90;;;;;;5110776;28;20074;-65
2021/01/24 07:59:26;;;;;;;77.72;37.83;;;1.30;99.90;;;;;;5110959;28;20020;-65
2021/01/24 08:01:53;;;;;;;77.22;37.75;;;1.40;99.90;;;;;;5110723;28;20032;-65
2021/01/24 08:04:23;;;;;;;80.18;38.28;;;1.40;99.90;;;;;;5110999;28;20027;-65
2021/01/24 08:06:49;;;;;;;75.63;37.45;;;1.40;99.90;;;;;;5110935;28;20087;-65
2021/01/24 08:09:16;;;;;;;77.40;36.65;;;1.40;99.90;;;;;;5110120;28;20039;-65
2021/01/24 08:11:42;;;;;;;73.45;35.17;;;1.50;99.90;;;;;;5110523;28;20027;-65
2021/01/24 08:14:08;;;;;;;75.97;36.65;;;1.60;99.90;;;;;;5110761;28;20373;-65
2021/01/24 08:16:39;;;;;;;71.47;33.55;;;1.50;99.90;;;;;;5110723;28;20138;-65
2021/01/24 08:19:07;;;;;;;69.28;33.10;;;1.60;99.90;;;;;;5109863;28;20020;-65
2021/01/24 08:21:33;;;;;;;63.67;29.75;;;1.70;99.90;;;;;;5095374;28;20052;-65
2021/01/24 08:24:01;;;;;;;61.47;29.35;;;1.70;99.90;;;;;;5096948;28;20026;-65
2021/01/24 08:26:27;;;;;;;57.88;26.92;;;1.80;99.90;;;;;;5095797;28;20469;-65
2021/01/24 08:28:54;;;;;;;54.28;24.67;;;1.80;99.90;;;;;;5096587;28;20484;-65
2021/01/24 08:31:21;;;;;;;50.65;24.05;;;1.80;99.90;;;;;;5096320;28;20031;-65
2021/01/24 08:33:52;;;;;;;44.45;21.08;;;1.90;99.90;;;;;;5096561;28;20373;-65
2021/01/24 08:36:19;;;;;;;42.92;21.48;;;2.00;99.90;;;;;;5095320;28;20077;-65
2021/01/24 08:38:46;;;;;;;38.97;18.88;;;2.00;99.90;;;;;;5096153;28;20421;-65
2021/01/24 08:41:13;;;;;;;41.38;19.77;;;2.00;99.90;;;;;;5095257;28;20031;-65
2021/01/24 08:43:39;;;;;;;42.47;20.73;;;2.10;99.90;;;;;;5095217;28;20020;-65
2021/01/24 08:46:26;;;;;;;39.17;20.40;;;2.10;99.90;;;;;;5096035;28;20385;-65
2021/01/24 08:49:01;;;;;;;40.40;20.65;;;2.10;99.90;;;;;;5094876;28;20169;-65
2021/01/24 08:51:48;;;;;;;37.65;20.08;;;2.20;99.90;;;;;;5096505;28;20019;-65
2021/01/24 08:54:17;;;;;;;39.63;20.27;;;2.30;99.90;;;;;;5096450;28;20413;-65
2021/01/24 08:56:43;;;;;;;42.15;19.58;;;2.30;99.90;;;;;;5096369;28;20141;-65
2021/01/24 08:59:26;;;;;;;41.17;20.05;;;2.30;99.90;;;;;;5096352;28;20047;-65
2021/01/24 09:01:54;;;;;;;42.55;20.73;;;2.40;99.90;;;;;;5096292;28;20077;-65
2021/01/24 09:04:26;;;;;;;37.83;19.55;;;2.50;99.90;;;;;;5096252;28;20028;-65
2021/01/24 09:07:12;;;;;;;40.25;19.00;;;2.50;99.90;;;;;;5096167;28;20024;-65
2021/01/24 09:09:41;;;;;;;42.50;19.88;;;2.60;99.90;;;;;;5095367;28;20481;-65
2021/01/24 09:12:09;;;;;;;36.95;18.00;;;2.60;99.90;;;;;;5096097;28;20099;-65
2021/01/24 09:14:35;;;;;;;41.65;19.10;;;2.50;99.90;;;;;;5095739;28;20417;-65
2021/01/24 09:17:06;;;;;;;40.53;19.35;;;2.60;99.90;;;;;;5095658;28;20024;-65
2021/01/24 09:19:34;;;;;;;39.97;19.48;;;2.70;99.90;;;;;;5095604;28;20024;-65
2021/01/24 09:22:01;;;;;;;43.10;20.45;;;2.70;99.90;;;;;;5095336;28;20484;-65
2021/01/24 09:24:27;;;;;;;39.25;18.83;;;2.60;99.90;;;;;;5095520;28;20045;-65
2021/01/24 09:26:52;;;;;;;40.75;20.17;;;2.70;99.90;;;;;;5095769;28;20392;-65
2021/01/24 09:29:18;;;;;;;43.22;20.35;;;2.60;99.90;;;;;;5095360;28;20059;-65
2021/01/24 09:31:44;;;;;;;51.15;23.67;;;2.70;99.90;;;;;;5094636;28;20025;-65
2021/01/24 09:34:09;;;;;;;50.55;23.73;;;2.60;99.90;;;;;;5095553;28;20031;-65
2021/01/24 09:36:35;;;;;;;59.72;27.35;;;2.60;99.90;;;;;;5094896;28;20102;-65
2021/01/24 09:39:02;;;;;;;57.80;27.35;;;2.60;99.90;;;;;;5095198;28;20024;-65
2021/01/24 09:41:28;;;;;;;55.47;26.83;;;2.60;99.90;;;;;;5095471;28;20023;-65
2021/01/24 09:43:53;;;;;;;58.20;27.80;;;2.70;99.90;;;;;;5095351;28;20024;-65
2021/01/24 09:46:19;;;;;;;63.63;28.35;;;2.70;99.90;;;;;;5095371;28;20039;-65
2021/01/24 09:48:44;;;;;;;61.63;28.58;;;2.70;99.90;;;;;;5095181;28;20024;-65
2021/01/24 09:51:10;;;;;;;59.00;28.08;;;2.70;99.90;;;;;;5095270;28;20024;-65
2021/01/24 09:53:36;;;;;;;62.70;28.33;;;2.70;99.90;;;;;;5094964;28;20012;-65
2021/01/24 09:56:04;;;;;;;58.92;27.65;;;2.70;99.90;;;;;;5094940;28;20063;-65
2021/01/24 09:58:30;;;;;;;66.03;29.20;;;2.70;99.90;;;;;;5094891;28;20504;-65
2021/01/24 10:00:55;;;;;;;65.35;29.38;;;2.70;99.90;;;;;;5095083;28;20028;-65
2021/01/24 10:03:21;;;;;;;62.65;27.33;;;2.70;99.90;;;;;;5094822;28;20497;-65
2021/01/24 10:05:46;;;;;;;59.22;27.77;;;2.70;99.90;;;;;;5094714;28;20548;-65
2021/01/24 10:08:12;;;;;;;65.43;28.83;;;2.70;99.90;;;;;;5094390;28;20052;-65
2021/01/24 10:10:37;;;;;;;60.78;28.63;;;2.80;99.90;;;;;;5093919;28;20070;-65
2021/01/24 10:13:03;;;;;;;62.90;29.98;;;2.70;99.90;;;;;;5094847;28;20096;-65
2021/01/24 10:15:28;;;;;;;63.83;27.33;;;2.80;99.90;;;;;;5093578;28;20071;-65
2021/01/24 10:17:54;;;;;;;58.92;28.30;;;2.80;99.90;;;;;;5094768;28;20024;-65
2021/01/24 10:20:20;;;;;;;54.78;26.92;;;2.80;99.90;;;;;;5094446;28;20419;-65
2021/01/24 10:22:45;;;;;;;53.00;22.40;;;2.90;99.90;;;;;;5094500;28;20030;-65
2021/01/24 10:25:11;;;;;;;58.92;26.88;;;2.80;99.90;;;;;;5094448;28;20028;-65
2021/01/24 10:27:37;;;;;;;58.20;27.48;;;2.80;99.90;;;;;;5094641;28;20445;-67
2021/01/24 10:30:03;;;;;;;57.83;28.10;;;2.80;99.90;;;;;;5094432;28;20027;-66
2021/01/24 10:32:29;;;;;;;59.08;28.55;;;2.80;99.90;;;;;;5094072;28;20028;-66
2021/01/24 10:34:54;;;;;;;52.72;26.98;;;2.80;99.90;;;;;;5094193;28;20039;-66
2021/01/24 10:37:20;;;;;;;54.65;25.88;;;2.90;99.90;;;;;;5093943;28;20032;-66
2021/01/24 10:39:45;;;;;;;57.30;26.38;;;2.90;99.90;;;;;;5092656;28;20426;-66
2021/01/24 10:42:11;;;;;;;52.63;24.90;;;3.00;99.90;;;;;;5094414;28;20449;-66
2021/01/24 10:44:37;;;;;;;48.47;24.42;;;3.00;99.90;;;;;;5094144;28;20020;-66
2021/01/24 10:47:02;;;;;;;55.75;26.52;;;3.00;99.90;;;;;;5094309;28;20031;-66
2021/01/24 10:49:28;;;;;;;59.55;28.38;;;2.90;99.90;;;;;;5094209;28;20032;-66
2021/01/24 10:51:53;;;;;;;54.88;25.60;;;3.00;99.90;;;;;;5093670;28;20024;-66
2021/01/24 10:54:20;;;;;;;49.67;24.55;;;3.00;99.90;;;;;;5094251;28;20078;-66
2021/01/24 10:56:45;;;;;;;51.20;24.15;;;3.00;99.90;;;;;;5092814;28;20028;-66
2021/01/24 10:59:12;;;;;;;46.17;23.00;;;3.00;99.90;;;;;;5093921;28;20031;-66
2021/01/24 11:01:37;;;;;;;44.92;22.40;;;3.00;99.90;;;;;;5094173;28;20103;-64
2021/01/24 11:04:03;;;;;;;34.55;16.90;;;3.10;99.90;;;;;;5094144;28;20529;-66
2021/01/24 11:06:28;;;;;;;40.30;19.63;;;3.10;99.90;;;;;;5094102;28;20115;-66
2021/01/24 11:08:54;;;;;;;43.88;20.58;;;3.10;99.90;;;;;;5093439;28;20051;-64
2021/01/24 11:11:20;;;;;;;41.55;20.40;;;3.20;99.90;;;;;;5094076;28;20103;-67
2021/01/24 11:13:46;;;;;;;37.60;18.92;;;3.20;99.90;;;;;;5093709;28;20016;-66
2021/01/24 11:16:11;;;;;;;41.92;18.83;;;3.20;99.90;;;;;;5092150;28;20086;-66
2021/01/24 11:18:37;;;;;;;36.03;17.52;;;3.20;99.90;;;;;;5093673;28;20024;-66
2021/01/24 11:21:03;;;;;;;39.85;18.85;;;3.30;99.90;;;;;;5093625;28;20051;-66
2021/01/24 11:23:29;;;;;;;41.42;18.63;;;3.30;99.90;;;;;;5093974;28;20020;-66
2021/01/24 11:25:54;;;;;;;34.17;17.05;;;3.30;99.90;;;;;;5093625;28;20035;-66
2021/01/24 11:28:20;;;;;;;38.45;17.38;;;3.20;99.90;;;;;;5093557;28;20039;-66
2021/01/24 11:30:48;;;;;;;37.63;18.27;;;3.20;99.90;;;;;;5093585;28;20458;-66
2021/01/24 11:33:13;;;;;;;40.38;18.13;;;3.20;99.90;;;;;;5093829;28;20028;-66
2021/01/24 11:35:39;;;;;;;39.17;18.02;;;3.20;99.90;;;;;;5093827;28;20020;-66
2021/01/24 11:38:05;;;;;;;37.20;16.63;;;3.20;99.90;;;;;;5093477;28;20028;-65
2021/01/24 11:40:30;;;;;;;39.42;18.27;;;3.20;99.90;;;;;;5092757;28;20123;-66
2021/01/24 11:42:56;;;;;;;40.95;18.73;;;3.20;99.90;;;;;;5093177;28;20063;-66
2021/01/24 11:45:22;;;;;;;41.63;18.77;;;3.20;99.90;;;;;;5093721;28;20059;-67
2021/01/24 11:47:48;;;;;;;30.45;15.68;;;3.20;99.90;;;;;;5093571;28;20469;-66
2021/01/24 11:50:13;;;;;;;33.65;15.57;;;3.30;99.90;;;;;;5093339;28;20020;-66
2021/01/24 11:52:39;;;;;;;31.67;15.18;;;3.40;99.90;;;;;;5093440;28;20028;-66
2021/01/24 11:55:05;;;;;;;31.25;15.27;;;3.40;99.90;;;;;;5094374;28;20030;-67
2021/01/24 11:57:31;;;;;;;25.85;12.57;;;3.60;99.90;;;;;;5097561;28;20471;-66
2021/01/24 11:59:56;;;;;;;26.00;12.32;;;3.50;99.90;;;;;;5097492;28;20020;-66
2021/01/24 12:02:24;;;;;;;26.73;12.63;;;3.60;99.90;;;;;;5097441;28;20409;-66
2021/01/24 12:04:50;;;;;;;27.90;12.80;;;3.50;99.90;;;;;;5097145;28;20020;-67
2021/01/24 12:07:15;;;;;;;21.58;11.80;;;3.50;99.90;;;;;;5095790;28;20077;-66
2021/01/24 12:09:41;;;;;;;24.73;11.27;;;3.60;99.90;;;;;;5096586;28;20132;-65
2021/01/24 12:12:08;;;;;;;26.85;12.52;;;3.60;99.90;;;;;;5095379;28;20055;-65
2021/01/24 12:14:34;;;;;;;28.73;13.35;;;3.50;99.90;;;;;;5096976;28;20016;-66
2021/01/24 12:16:59;;;;;;;25.45;12.73;;;3.50;99.90;;;;;;5096913;28;20026;-64
2021/01/24 12:19:25;;;;;;;24.05;11.18;;;3.50;99.90;;;;;;5097115;28;20020;-64
2021/01/24 12:21:50;;;;;;;31.90;12.93;;;3.40;99.90;;;;;;5096804;28;20023;-64
2021/01/24 12:24:16;;;;;;;27.50;12.38;;;3.40;99.90;;;;;;5097018;28;20030;-67
2021/01/24 12:26:44;;;;;;;30.67;13.07;;;3.50;99.90;;;;;;5095979;28;20035;-65
2021/01/24 12:29:09;;;;;;;21.25;11.70;;;3.50;99.90;;;;;;5095641;28;20027;-67
2021/01/24 12:31:35;;;;;;;23.30;11.43;;;3.60;99.90;;;;;;5095716;28;20032;-66
2021/01/24 12:34:00;;;;;;;21.15;11.00;;;3.60;99.90;;;;;;5096212;28;20035;-67
2021/01/24 12:36:26;;;;;;;20.48;10.18;;;3.60;99.90;;;;;;5095208;28;20073;-66
2021/01/24 12:38:52;;;;;;;20.70;11.38;;;3.50;99.90;;;;;;5096788;28;20389;-67
2021/01/24 12:41:18;;;;;;;30.65;12.10;;;3.60;99.90;;;;;;5096724;28;20077;-67
2021/01/24 12:43:44;;;;;;;19.65;10.00;;;3.50;99.90;;;;;;5096139;28;20050;-67